Terminal Aerodrome Forecast
Issued by NWS Wilmington, NC

Home | Current Version | Previous Version | Text Only | Print | Product List | Glossary On
Versions: 1 2 3 4 5 6 7 8 9 10 11 12 13 14 15
000
FTUS42 KILM 180500
TAFFLO
TAF
KFLO 180520Z 1806/1906 06008KT P6SM SCT060 BKN250
     FM180900 04006KT P6SM BKN040
     FM181300 04012KT P6SM SCT035 BKN100
     FM181600 03012G17KT P6SM SCT050 BKN060
     FM181800 04010G16KT P6SM VCSH BKN040
     FM181900 04011G16KT 6SM -RA BKN025
     FM182100 04010KT 5SM -RA BKN015
     FM182300 04011KT 4SM RA BR BKN008=

USA.gov is the U.S. government's official web portal to all federal, state and local government web resources and services.